createdAt,value
2022-09-06T00:02:22.046Z,69.95
2022-09-06T00:04:57.865Z,70.08
2022-09-06T00:07:32.317Z,70.21
2022-09-06T00:10:08.066Z,70.67
2022-09-06T00:12:42.465Z,70.05
2022-09-06T00:15:17.014Z,70.21
2022-09-06T00:17:51.781Z,69.80
2022-09-06T00:20:28.092Z,69.78
2022-09-06T00:23:04.069Z,70.00
2022-09-06T00:25:38.491Z,70.41
2022-09-06T00:28:12.807Z,71.00
2022-09-06T00:30:47.831Z,71.12
2022-09-06T00:33:21.955Z,70.83
2022-09-06T00:36:01.525Z,70.77
2022-09-06T00:38:35.742Z,70.87
2022-09-06T00:41:13.023Z,70.55
2022-09-06T00:43:47.377Z,70.66
2022-09-06T00:46:24.713Z,70.83
2022-09-06T00:49:03.634Z,70.45
2022-09-06T00:51:39.924Z,70.50
2022-09-06T00:54:14.058Z,70.95
2022-09-06T00:56:48.726Z,70.38
2022-09-06T00:59:23.250Z,70.63
2022-09-06T01:01:57.762Z,70.42
2022-09-06T01:04:32.743Z,70.91
2022-09-06T01:07:19.833Z,71.33
2022-09-06T01:10:09.979Z,71.13
2022-09-06T01:12:58.620Z,70.99
2022-09-06T01:15:46.554Z,71.85
2022-09-06T01:18:30.581Z,72.08
2022-09-06T01:21:30.628Z,71.63
2022-09-06T01:24:52.603Z,70.93
2022-09-06T01:27:55.305Z,71.71
2022-09-06T01:30:32.790Z,71.36
2022-09-06T01:33:15.530Z,70.77
2022-09-06T01:35:55.564Z,70.47
2022-09-06T01:38:29.880Z,70.36
2022-09-06T01:41:04.233Z,71.29
2022-09-06T01:43:42.875Z,71.33
2022-09-06T01:46:27.421Z,70.53
2022-09-06T01:49:19.518Z,71.28
2022-09-06T01:52:06.795Z,71.62
2022-09-06T01:54:58.089Z,72.41
2022-09-06T01:57:55.128Z,72.65
2022-09-06T02:00:30.677Z,72.87
2022-09-06T02:03:12.312Z,73.35
2022-09-06T02:05:51.608Z,73.02
2022-09-06T02:08:32.686Z,72.96
2022-09-06T02:11:09.938Z,73.10
2022-09-06T02:13:50.683Z,73.01
2022-09-06T02:16:28.004Z,73.24
2022-09-06T02:19:07.890Z,73.17
2022-09-06T02:21:45.457Z,73.42
2022-09-06T02:24:23.593Z,73.25
2022-09-06T02:26:58.007Z,73.22
2022-09-06T02:29:32.487Z,72.92
2022-09-06T02:32:14.510Z,73.27
2022-09-06T02:34:49.608Z,73.09
2022-09-06T02:37:26.270Z,72.65
2022-09-06T02:40:00.694Z,72.87
2022-09-06T02:42:34.876Z,72.64
2022-09-06T02:45:10.149Z,72.74
2022-09-06T02:47:45.586Z,73.24
2022-09-06T02:50:19.968Z,73.01
2022-09-06T02:53:06.571Z,72.86
2022-09-06T02:55:41.524Z,72.44
2022-09-06T02:58:16.537Z,71.52
2022-09-06T03:00:51.436Z,71.24
2022-09-06T03:03:27.489Z,71.54
2022-09-06T03:06:02.308Z,71.42
2022-09-06T03:08:36.770Z,70.99
2022-09-06T03:11:11.188Z,71.83
2022-09-06T03:13:45.257Z,71.34
2022-09-06T03:16:20.809Z,70.93
2022-09-06T03:18:56.398Z,70.78
2022-09-06T03:21:30.846Z,70.77
2022-09-06T03:24:05.095Z,70.89
2022-09-06T03:26:39.435Z,70.58
2022-09-06T03:29:13.472Z,71.16
2022-09-06T03:31:47.806Z,71.58
2022-09-06T03:34:23.312Z,71.72
2022-09-06T03:36:57.710Z,72.22
2022-09-06T03:39:31.925Z,71.85
2022-09-06T03:42:06.426Z,71.97
2022-09-06T03:44:40.613Z,79.51
2022-09-06T03:47:18.875Z,73.13
2022-09-06T03:49:55.280Z,70.84
2022-09-06T03:52:29.600Z,70.30
2022-09-06T03:55:04.083Z,70.12
2022-09-06T03:57:38.452Z,71.87
2022-09-06T04:00:15.311Z,72.18
2022-09-06T04:02:49.684Z,72.81
2022-09-06T04:05:25.193Z,73.48
2022-09-06T04:07:59.595Z,73.60
2022-09-06T04:10:33.900Z,73.05
2022-09-06T04:13:08.301Z,73.96
2022-09-06T04:15:46.209Z,74.32
2022-09-06T04:18:22.002Z,74.42
2022-09-06T04:20:58.099Z,74.09
2022-09-06T04:23:36.420Z,74.12
2022-09-06T04:26:13.396Z,74.04
2022-09-06T04:28:48.018Z,73.70
2022-09-06T04:31:22.263Z,73.91
2022-09-06T04:33:56.945Z,74.01
2022-09-06T04:36:32.430Z,74.10
2022-09-06T04:39:07.032Z,80.64
2022-09-06T04:41:41.129Z,73.30
2022-09-06T04:44:15.474Z,72.41
2022-09-06T04:46:49.779Z,72.40
2022-09-06T04:49:24.571Z,72.76
2022-09-06T04:52:00.090Z,73.03
2022-09-06T04:54:34.548Z,73.55
2022-09-06T04:57:08.908Z,73.57
2022-09-06T04:59:43.307Z,73.73
2022-09-06T05:02:20.296Z,73.45
2022-09-06T05:04:55.392Z,73.80
2022-09-06T05:07:30.846Z,73.87
2022-09-06T05:10:06.338Z,73.92
2022-09-06T05:12:44.182Z,73.59
2022-09-06T05:15:19.370Z,73.52
2022-09-06T05:17:53.599Z,73.46
2022-09-06T05:20:28.096Z,73.66
2022-09-06T05:23:03.596Z,73.52
2022-09-06T05:25:37.955Z,73.17
2022-09-06T05:28:12.028Z,72.96
2022-09-06T05:30:46.814Z,72.83
2022-09-06T05:33:23.089Z,72.84
2022-09-06T05:35:57.636Z,72.66
2022-09-06T05:38:33.487Z,72.17
2022-09-06T05:41:08.123Z,72.40
2022-09-06T05:43:42.375Z,72.81
2022-09-06T05:46:17.707Z,71.99
2022-09-06T05:48:55.753Z,72.43
2022-09-06T05:51:30.216Z,71.95
2022-09-06T05:54:05.847Z,71.59
2022-09-06T05:56:40.225Z,70.21
2022-09-06T05:59:14.487Z,70.78
2022-09-06T06:01:53.056Z,70.83
2022-09-06T06:04:27.555Z,70.60
2022-09-06T06:07:01.766Z,71.00
2022-09-06T06:09:37.955Z,70.92
2022-09-06T06:12:12.087Z,72.29
2022-09-06T06:14:49.257Z,70.10
2022-09-06T06:17:23.639Z,71.01
2022-09-06T06:19:58.442Z,70.23
2022-09-06T06:22:32.511Z,69.98
2022-09-06T06:25:09.076Z,69.39
2022-09-06T06:27:46.307Z,69.83
2022-09-06T06:30:20.692Z,68.99
2022-09-06T06:32:54.823Z,68.90
2022-09-06T06:35:29.174Z,68.42
2022-09-06T06:38:03.733Z,68.06
2022-09-06T06:40:39.550Z,67.86
2022-09-06T06:43:14.680Z,67.94
2022-09-06T06:45:51.070Z,68.32
2022-09-06T06:48:25.293Z,66.74
2022-09-06T06:51:00.043Z,67.39
2022-09-06T06:53:35.398Z,66.50
2022-09-06T06:56:19.855Z,66.94
2022-09-06T06:58:57.809Z,65.92
2022-09-06T07:01:34.314Z,65.70
2022-09-06T07:04:10.575Z,65.54
2022-09-06T07:12:41.038Z,64.75
2022-09-06T07:15:15.199Z,64.54
2022-09-06T07:17:49.727Z,63.82
2022-09-06T07:20:24.130Z,64.34
2022-09-06T07:25:55.619Z,64.09
2022-09-06T07:28:31.821Z,62.77
2022-09-06T07:31:06.304Z,61.58
2022-09-06T07:33:41.097Z,62.63
2022-09-06T07:36:18.174Z,62.11
2022-09-06T07:38:53.726Z,62.70
2022-09-06T07:41:28.098Z,62.09
2022-09-06T07:44:04.309Z,62.38
2022-09-06T07:46:38.526Z,60.70
2022-09-06T07:49:13.082Z,60.85
2022-09-06T07:51:47.340Z,60.67
2022-09-06T07:54:30.797Z,60.34
2022-09-06T07:57:05.310Z,58.99
2022-09-06T07:59:42.996Z,58.48
2022-09-06T08:02:18.033Z,58.75
2022-09-06T08:04:52.441Z,58.57
2022-09-06T08:07:41.779Z,58.18
2022-09-06T08:10:18.456Z,58.38
2022-09-06T08:12:54.447Z,56.45
2022-09-06T08:15:33.479Z,55.55
2022-09-06T08:18:07.815Z,55.70
2022-09-06T08:20:42.249Z,55.60
2022-09-06T08:23:16.287Z,54.79
2022-09-06T08:25:58.641Z,54.26
2022-09-06T08:28:32.756Z,54.55
2022-09-06T08:31:10.305Z,54.34
2022-09-06T08:33:45.685Z,53.14
2022-09-06T08:36:20.555Z,54.16
2022-09-06T08:38:54.844Z,52.57
2022-09-06T08:41:34.331Z,53.04
2022-09-06T08:47:10.567Z,52.31
2022-09-06T08:49:46.320Z,52.46
2022-09-06T08:52:31.388Z,51.70
2022-09-06T08:55:23.309Z,50.87
2022-09-06T08:58:13.402Z,47.60
2022-09-06T09:00:51.850Z,47.86
2022-09-06T09:03:32.475Z,48.82
2022-09-06T09:06:10.372Z,49.36
2022-09-06T09:08:53.600Z,48.34
2022-09-06T09:11:28.817Z,49.47
2022-09-06T09:14:06.891Z,49.46
2022-09-06T09:16:41.021Z,48.44
2022-09-06T09:19:16.944Z,48.20
2022-09-06T09:21:51.152Z,48.44
2022-09-06T09:24:25.475Z,47.05
2022-09-06T09:27:05.160Z,48.62
2022-09-06T09:32:53.322Z,47.54
2022-09-06T09:35:36.311Z,48.21
2022-09-06T09:38:12.416Z,46.55
2022-09-06T09:40:52.144Z,47.93
2022-09-06T09:43:28.050Z,45.61
2022-09-06T09:46:17.744Z,44.72
2022-09-06T09:49:06.769Z,46.18
2022-09-06T09:51:44.066Z,42.01
2022-09-06T09:54:33.138Z,44.31
2022-09-06T09:57:11.911Z,44.94
2022-09-06T09:59:49.334Z,43.91
2022-09-06T10:02:28.628Z,44.72
2022-09-06T10:05:06.460Z,43.06
2022-09-06T10:07:47.460Z,45.21
2022-09-06T10:10:24.335Z,43.38
2022-09-06T10:13:20.379Z,43.46
2022-09-06T10:15:55.650Z,43.14
2022-09-06T10:18:36.002Z,42.21
2022-09-06T10:21:12.911Z,44.04
2022-09-06T10:27:02.838Z,41.50
2022-09-06T10:29:45.360Z,42.39
2022-09-06T10:32:37.207Z,41.03
2022-09-06T10:35:17.777Z,41.79
2022-09-06T10:38:13.469Z,41.41
2022-09-06T10:41:02.290Z,42.69
2022-09-06T10:43:47.150Z,41.96
2022-09-06T10:46:28.378Z,41.40
2022-09-06T10:49:03.127Z,42.29
2022-09-06T10:51:41.482Z,42.31
2022-09-06T10:54:18.495Z,42.06
2022-09-06T10:56:59.570Z,39.87
2022-09-06T10:59:37.198Z,42.58
2022-09-06T11:02:23.528Z,41.50
2022-09-06T11:10:57.643Z,38.34
2022-09-06T11:13:33.890Z,36.93
2022-09-06T11:16:14.502Z,38.19
2022-09-06T11:18:54.439Z,38.05
2022-09-06T11:22:03.994Z,37.50
2022-09-06T11:24:57.947Z,38.83
2022-09-06T11:27:37.507Z,39.64
2022-09-06T11:30:16.887Z,39.05
2022-09-06T11:32:52.466Z,36.84
2022-09-06T11:35:28.752Z,37.15
2022-09-06T11:38:05.762Z,37.66
2022-09-06T11:40:42.456Z,35.30
2022-09-06T11:43:19.843Z,36.24
2022-09-06T11:45:55.429Z,35.88
2022-09-06T11:48:37.517Z,36.13
2022-09-06T11:51:12.498Z,37.86
2022-09-06T11:54:20.091Z,37.53
2022-09-06T11:56:59.569Z,37.34
2022-09-06T11:59:37.142Z,37.95
2022-09-06T12:02:35.311Z,38.80
2022-09-06T12:05:27.262Z,39.39
2022-09-06T12:08:32.999Z,39.15
2022-09-06T12:11:25.576Z,40.42
2022-09-06T12:14:04.357Z,39.45
2022-09-06T12:17:30.453Z,40.00
2022-09-06T12:20:07.524Z,40.11
2022-09-06T12:23:03.567Z,37.45
2022-09-06T12:25:58.150Z,38.38
2022-09-06T12:28:49.899Z,38.29
2022-09-06T12:31:32.867Z,37.89
2022-09-06T12:34:12.755Z,38.96
2022-09-06T12:36:58.633Z,38.85
2022-09-06T12:39:33.526Z,38.39
2022-09-06T12:42:14.356Z,38.88
2022-09-06T12:44:50.969Z,40.26
2022-09-06T12:47:29.281Z,39.36
2022-09-06T12:50:14.459Z,40.14
2022-09-06T12:52:52.092Z,40.43
2022-09-06T12:55:28.535Z,39.17
2022-09-06T12:58:05.038Z,39.53
2022-09-06T13:00:43.401Z,38.86
2022-09-06T13:03:28.809Z,38.57
2022-09-06T13:06:06.696Z,40.57
2022-09-06T13:08:47.552Z,39.59
2022-09-06T13:11:27.261Z,39.62
2022-09-06T13:14:04.017Z,38.88
2022-09-06T13:16:44.948Z,40.88
2022-09-06T13:19:30.652Z,40.16
2022-09-06T13:22:07.807Z,38.60
2022-09-06T13:24:49.177Z,36.98
2022-09-06T13:27:25.182Z,37.77
2022-09-06T13:30:01.025Z,37.72
2022-09-06T13:32:36.785Z,36.21
2022-09-06T13:35:10.944Z,38.45
2022-09-06T13:37:52.052Z,38.09
2022-09-06T13:41:06.954Z,38.52
2022-09-06T13:43:45.069Z,38.86
2022-09-06T13:46:19.274Z,37.63
2022-09-06T13:48:55.198Z,38.16
2022-09-06T13:51:29.440Z,38.34
2022-09-06T13:54:08.295Z,38.48
2022-09-06T13:56:44.784Z,38.35
2022-09-06T13:59:19.484Z,39.19
2022-09-06T14:02:03.035Z,39.88
2022-09-06T14:04:37.856Z,38.02
2022-09-06T14:07:12.092Z,37.20
2022-09-06T14:09:47.563Z,37.89
2022-09-06T14:12:23.109Z,37.59
2022-09-06T14:14:57.561Z,38.65
2022-09-06T14:17:32.957Z,39.53
2022-09-06T14:20:08.753Z,37.83
2022-09-06T14:22:42.823Z,38.05
2022-09-06T14:25:17.323Z,38.84
2022-09-06T14:27:52.809Z,38.46
2022-09-06T14:30:27.233Z,38.78
2022-09-06T14:33:01.347Z,39.87
2022-09-06T14:35:35.892Z,38.41
2022-09-06T14:38:10.364Z,37.95
2022-09-06T14:40:44.793Z,38.45
2022-09-06T14:43:20.289Z,39.19
2022-09-06T14:45:54.731Z,39.02
2022-09-06T14:48:31.452Z,39.82
2022-09-06T14:51:10.340Z,39.40
2022-09-06T14:53:45.839Z,38.58
2022-09-06T14:56:21.381Z,38.80
2022-09-06T14:58:59.883Z,40.08
2022-09-06T15:01:38.320Z,40.53
2022-09-06T15:04:13.330Z,40.79
2022-09-06T15:06:48.518Z,41.37
2022-09-06T15:09:22.847Z,40.64
2022-09-06T15:11:57.346Z,41.28
2022-09-06T15:14:34.099Z,40.79
2022-09-06T15:17:09.052Z,41.29
2022-09-06T15:19:43.185Z,41.84
2022-09-06T15:22:17.653Z,42.20
2022-09-06T15:24:51.940Z,41.61
2022-09-06T15:27:26.367Z,41.74
2022-09-06T15:30:01.837Z,42.11
2022-09-06T15:32:36.317Z,42.61
2022-09-06T15:35:10.649Z,42.71
2022-09-06T15:37:45.680Z,43.12
2022-09-06T15:40:24.420Z,43.55
2022-09-06T15:42:58.821Z,43.81
2022-09-06T15:45:47.306Z,43.75
2022-09-06T15:48:21.773Z,44.09
2022-09-06T15:50:55.886Z,44.08
2022-09-06T15:53:30.367Z,43.94
2022-09-06T15:56:04.992Z,43.68
2022-09-06T15:58:39.799Z,44.81
2022-09-06T16:01:18.439Z,45.15
2022-09-06T16:03:55.701Z,45.49
2022-09-06T16:06:32.528Z,45.97
2022-09-06T16:09:09.821Z,45.67
2022-09-06T16:11:45.274Z,46.53
2022-09-06T16:14:20.320Z,46.56
2022-09-06T16:16:57.602Z,47.10
2022-09-06T16:19:32.352Z,47.20
2022-09-06T16:22:06.641Z,46.48
2022-09-06T16:24:41.081Z,47.13
2022-09-06T16:27:15.371Z,47.67
2022-09-06T16:29:50.004Z,47.60
2022-09-06T16:32:25.838Z,48.23
2022-09-06T16:35:01.041Z,47.05
2022-09-06T16:37:35.253Z,47.64
2022-09-06T16:40:11.223Z,47.66
2022-09-06T16:42:45.482Z,48.21
2022-09-06T16:45:19.964Z,48.37
2022-09-06T16:47:55.469Z,49.71
2022-09-06T16:50:29.993Z,48.99
2022-09-06T16:53:04.222Z,49.60
2022-09-06T16:55:39.384Z,48.89
2022-09-06T16:58:15.769Z,50.07
2022-09-06T17:00:52.472Z,49.93
2022-09-06T17:03:28.544Z,50.53
2022-09-06T17:06:03.708Z,51.09
2022-09-06T17:08:38.606Z,52.31
2022-09-06T17:11:15.873Z,52.90
2022-09-06T17:13:52.243Z,53.40
2022-09-06T17:16:44.899Z,54.05
2022-09-06T17:19:20.643Z,53.89
2022-09-06T17:21:55.403Z,54.29
2022-09-06T17:24:29.748Z,54.73
2022-09-06T17:27:04.659Z,54.21
2022-09-06T17:29:40.140Z,55.67
2022-09-06T17:32:14.685Z,57.50
2022-09-06T17:34:50.364Z,57.70
2022-09-06T17:37:24.962Z,57.68
2022-09-06T17:39:59.360Z,58.09
2022-09-06T17:42:33.974Z,58.30
2022-09-06T17:45:09.086Z,59.18
2022-09-06T17:47:43.650Z,59.29
2022-09-06T17:50:19.805Z,59.34
2022-09-06T17:52:54.433Z,59.58
2022-09-06T17:55:30.096Z,59.99
2022-09-06T17:58:04.658Z,59.94
2022-09-06T18:00:39.802Z,60.62
2022-09-06T18:03:14.560Z,61.02
2022-09-06T18:05:50.204Z,59.77
2022-09-06T18:08:27.151Z,60.75
2022-09-06T18:11:07.285Z,61.38
2022-09-06T18:13:43.218Z,61.38
2022-09-06T18:16:17.574Z,60.92
2022-09-06T18:18:53.524Z,61.42
2022-09-06T18:21:30.994Z,61.53
2022-09-06T18:24:06.745Z,61.61
2022-09-06T18:26:41.247Z,61.51
2022-09-06T18:29:18.503Z,62.79
2022-09-06T18:31:54.132Z,61.52
2022-09-06T18:34:28.773Z,62.08
2022-09-06T18:37:05.318Z,62.93
2022-09-06T18:39:42.486Z,63.20
2022-09-06T18:42:16.793Z,63.18
2022-09-06T18:44:51.453Z,63.48
2022-09-06T18:47:25.880Z,63.50
2022-09-06T18:50:01.162Z,64.36
2022-09-06T18:52:38.481Z,64.35
2022-09-06T18:55:13.080Z,64.49
2022-09-06T18:57:47.676Z,64.81
2022-09-06T19:00:22.305Z,65.22
2022-09-06T19:02:56.568Z,65.37
2022-09-06T19:05:31.253Z,65.13
2022-09-06T19:08:06.930Z,64.31
2022-09-06T19:10:41.456Z,64.00
2022-09-06T19:13:15.794Z,64.17
2022-09-06T19:15:51.191Z,64.47
2022-09-06T19:18:26.039Z,64.36
2022-09-06T19:21:01.208Z,64.91
2022-09-06T19:23:39.995Z,65.10
2022-09-06T19:26:17.471Z,65.09
2022-09-06T19:28:53.724Z,65.13
2022-09-06T19:31:31.144Z,66.00
2022-09-06T19:34:05.983Z,65.45
2022-09-06T19:36:40.604Z,65.74
2022-09-06T19:39:17.528Z,66.00
2022-09-06T19:41:52.050Z,66.62
2022-09-06T19:44:26.105Z,66.62
2022-09-06T19:47:00.779Z,66.95
2022-09-06T19:49:35.014Z,67.05
2022-09-06T19:52:11.647Z,67.47
2022-09-06T19:54:47.077Z,65.70
2022-09-06T19:57:21.452Z,66.49
2022-09-06T19:59:56.109Z,66.14
2022-09-06T20:02:30.586Z,65.80
2022-09-06T20:05:05.261Z,65.88
2022-09-06T20:07:39.528Z,65.64
2022-09-06T20:10:16.014Z,66.76
2022-09-06T20:12:52.062Z,65.83
2022-09-06T20:16:28.832Z,65.22
2022-09-06T20:19:03.445Z,65.22
2022-09-06T20:21:37.577Z,66.22
2022-09-06T20:24:11.984Z,66.87
2022-09-06T20:26:46.011Z,66.92
2022-09-06T20:29:20.848Z,66.68
2022-09-06T20:31:56.354Z,66.79
2022-09-06T20:34:31.477Z,67.00
2022-09-06T20:37:05.639Z,67.65
2022-09-06T20:39:40.148Z,66.71
2022-09-06T20:42:14.346Z,67.61
2022-09-06T20:44:48.690Z,67.68
2022-09-06T20:47:24.194Z,67.54
2022-09-06T20:49:58.583Z,67.50
2022-09-06T20:52:32.639Z,67.25
2022-09-06T20:55:08.250Z,67.15
2022-09-06T20:57:43.397Z,66.89
2022-09-06T21:00:18.048Z,67.35
2022-09-06T21:02:53.475Z,67.43
2022-09-06T21:05:28.182Z,68.10
2022-09-06T21:08:02.280Z,67.94
2022-09-06T21:10:36.704Z,67.89
2022-09-06T21:13:10.979Z,67.86
2022-09-06T21:15:49.103Z,67.63
2022-09-06T21:18:25.261Z,67.87
2022-09-06T21:21:01.652Z,67.75
2022-09-06T21:23:38.243Z,68.20
2022-09-06T21:26:15.883Z,68.73
2022-09-06T21:28:50.748Z,69.10
2022-09-06T21:31:27.084Z,68.39
2022-09-06T21:34:05.075Z,68.78
2022-09-06T21:36:40.284Z,69.15
2022-09-06T21:39:14.957Z,68.89
2022-09-06T21:41:49.424Z,69.04
2022-09-06T21:44:23.620Z,69.28
2022-09-06T21:46:58.953Z,69.73
2022-09-06T21:49:34.500Z,70.16
2022-09-06T21:52:08.948Z,70.00
2022-09-06T21:54:43.047Z,69.94
2022-09-06T21:57:18.043Z,69.99
2022-09-06T21:59:52.197Z,70.67
2022-09-06T22:02:27.262Z,71.14
2022-09-06T22:05:06.562Z,71.47
2022-09-06T22:07:40.674Z,70.61
2022-09-06T22:10:15.296Z,70.79
2022-09-06T22:12:49.385Z,71.54
2022-09-06T22:15:23.877Z,71.95
2022-09-06T22:17:58.002Z,72.03
2022-09-06T22:20:33.747Z,72.40
2022-09-06T22:23:10.019Z,72.31
2022-09-06T22:25:44.402Z,72.13
2022-09-06T22:28:18.449Z,72.12
2022-09-06T22:30:52.785Z,72.15
2022-09-06T22:33:27.384Z,72.25
2022-09-06T22:36:03.781Z,72.50
2022-09-06T22:38:38.256Z,73.09
2022-09-06T22:41:12.845Z,72.99
2022-09-06T22:43:46.918Z,72.97
2022-09-06T22:46:21.608Z,72.40
2022-09-06T22:48:56.543Z,72.44
2022-09-06T22:51:32.417Z,72.20
2022-09-06T22:54:06.764Z,72.56
2022-09-06T22:56:43.843Z,73.26
2022-09-06T22:59:18.169Z,73.26
2022-09-06T23:01:52.552Z,73.77
2022-09-06T23:04:26.609Z,74.06
2022-09-06T23:07:02.727Z,74.32
2022-09-06T23:09:36.988Z,74.43
2022-09-06T23:12:12.068Z,74.47
2022-09-06T23:14:46.320Z,74.67
2022-09-06T23:17:20.759Z,74.83
2022-09-06T23:19:55.527Z,74.94
2022-09-06T23:22:31.666Z,75.30
2022-09-06T23:25:07.233Z,75.29
2022-09-06T23:27:41.572Z,75.24
2022-09-06T23:30:17.404Z,75.60
2022-09-06T23:32:51.777Z,75.86
2022-09-06T23:35:26.040Z,75.45
2022-09-06T23:38:01.881Z,75.02
2022-09-06T23:40:36.156Z,75.40
2022-09-06T23:43:14.554Z,75.63
2022-09-06T23:45:48.728Z,75.96
2022-09-06T23:48:23.355Z,76.02
2022-09-06T23:50:57.546Z,76.07
2022-09-06T23:53:34.066Z,76.42
2022-09-06T23:56:08.584Z,76.40
2022-09-06T23:58:43.187Z,76.02
